createdAt,value
2022-10-19T00:01:32.326Z,81.67
2022-10-19T00:06:40.821Z,81.70
2022-10-19T00:11:49.905Z,81.72
2022-10-19T00:16:58.529Z,81.78
2022-10-19T00:22:08.122Z,81.85
2022-10-19T00:27:16.826Z,81.93
2022-10-19T00:32:24.809Z,81.81
2022-10-19T00:37:33.040Z,82.04
2022-10-19T00:42:40.093Z,82.18
2022-10-19T00:47:49.223Z,82.28
2022-10-19T00:52:57.448Z,82.38
2022-10-19T00:58:06.703Z,82.48
2022-10-19T01:03:16.029Z,82.56
2022-10-19T01:08:23.971Z,82.69
2022-10-19T01:13:46.770Z,82.87
2022-10-19T01:19:01.347Z,82.90
2022-10-19T01:24:52.110Z,83.00
2022-10-19T01:30:07.436Z,82.98
2022-10-19T01:35:23.204Z,83.05
2022-10-19T01:40:34.406Z,83.05
2022-10-19T01:45:48.342Z,82.96
2022-10-19T01:51:02.327Z,82.82
2022-10-19T01:56:13.836Z,82.67
2022-10-19T02:01:26.681Z,82.52
2022-10-19T02:06:34.875Z,82.33
2022-10-19T02:11:44.175Z,82.18
2022-10-19T02:17:03.432Z,82.06
2022-10-19T02:22:11.804Z,81.93
2022-10-19T02:27:20.597Z,81.84
2022-10-19T02:32:29.604Z,81.84
2022-10-19T02:37:37.705Z,81.83
2022-10-19T02:42:50.022Z,81.85
2022-10-19T02:48:01.739Z,81.89
2022-10-19T02:53:09.737Z,81.91
2022-10-19T02:58:17.718Z,81.92
2022-10-19T03:03:25.515Z,81.89
2022-10-19T03:08:33.547Z,81.88
2022-10-19T03:13:42.680Z,81.89
2022-10-19T03:18:51.914Z,81.92
2022-10-19T03:24:01.187Z,81.98
2022-10-19T03:29:09.273Z,82.07
2022-10-19T03:34:17.147Z,82.17
2022-10-19T03:39:25.201Z,82.26
2022-10-19T03:44:32.985Z,82.32
2022-10-19T03:49:40.389Z,82.38
2022-10-19T03:54:51.753Z,82.41
2022-10-19T03:59:59.611Z,82.44
2022-10-19T04:05:08.752Z,82.44
2022-10-19T04:10:16.742Z,82.44
2022-10-19T04:15:24.731Z,82.41
2022-10-19T04:20:31.955Z,82.42
2022-10-19T04:25:39.779Z,82.42
2022-10-19T04:30:47.577Z,82.43
2022-10-19T04:36:01.837Z,82.41
2022-10-19T04:41:11.688Z,82.35
2022-10-19T04:46:21.168Z,82.34
2022-10-19T04:51:29.858Z,82.37
2022-10-19T04:56:37.822Z,82.40
2022-10-19T05:01:47.260Z,82.50
2022-10-19T05:06:55.885Z,82.56
2022-10-19T05:12:04.220Z,82.66
2022-10-19T05:17:13.081Z,82.72
2022-10-19T05:22:21.156Z,82.81
2022-10-19T05:27:29.491Z,82.88
2022-10-19T05:32:37.510Z,82.93
2022-10-19T05:37:45.687Z,83.01
2022-10-19T05:42:53.571Z,83.07
2022-10-19T05:48:02.776Z,83.11
2022-10-19T05:53:10.846Z,83.15
2022-10-19T05:58:18.692Z,83.18
2022-10-19T06:03:27.891Z,83.20
2022-10-19T06:08:36.617Z,83.21
2022-10-19T06:13:46.511Z,83.22
2022-10-19T06:18:56.355Z,83.22
2022-10-19T06:24:06.829Z,83.21
2022-10-19T06:29:15.340Z,83.20
2022-10-19T06:34:23.571Z,83.20
2022-10-19T06:39:31.893Z,83.20
2022-10-19T06:44:38.873Z,83.18
2022-10-19T06:49:46.962Z,83.17
2022-10-19T06:54:54.964Z,83.13
2022-10-19T07:00:02.963Z,83.16
2022-10-19T07:05:11.790Z,83.17
2022-10-19T07:10:19.947Z,83.15
2022-10-19T07:15:27.984Z,83.08
2022-10-19T07:20:36.646Z,82.98
2022-10-19T07:25:44.925Z,82.92
2022-10-19T07:30:53.031Z,82.83
2022-10-19T07:36:07.006Z,82.76
2022-10-19T07:41:16.315Z,82.66
2022-10-19T07:46:26.558Z,82.48
2022-10-19T07:51:34.787Z,82.26
2022-10-19T07:56:42.919Z,82.15
2022-10-19T08:01:50.821Z,82.10
2022-10-19T08:06:58.719Z,81.98
2022-10-19T08:12:11.162Z,81.92
2022-10-19T08:17:22.842Z,81.85
2022-10-19T08:22:30.243Z,81.59
2022-10-19T08:27:38.171Z,81.12
2022-10-19T08:32:46.104Z,80.65
2022-10-19T08:37:54.076Z,80.34
2022-10-19T08:43:12.358Z,80.18
2022-10-19T08:48:29.335Z,80.13
2022-10-19T08:53:45.622Z,80.15
2022-10-19T08:59:07.389Z,80.16
2022-10-19T09:04:22.519Z,80.23
2022-10-19T09:09:34.757Z,80.32
2022-10-19T09:14:53.918Z,80.37
2022-10-19T09:20:03.529Z,80.37
2022-10-19T09:25:20.327Z,80.45
2022-10-19T09:30:27.835Z,80.63
2022-10-19T09:35:39.764Z,80.83
2022-10-19T09:40:48.696Z,81.08
2022-10-19T09:46:01.154Z,81.26
2022-10-19T09:51:16.837Z,81.42
2022-10-19T09:56:25.654Z,81.60
2022-10-19T10:01:41.853Z,81.72
2022-10-19T10:06:51.436Z,81.78
2022-10-19T10:12:01.036Z,81.74
2022-10-19T10:17:16.405Z,81.75
2022-10-19T10:22:32.982Z,81.79
2022-10-19T10:27:41.624Z,81.73
2022-10-19T10:32:53.034Z,81.50
2022-10-19T10:38:10.633Z,81.19
2022-10-19T10:43:22.471Z,80.76
2022-10-19T10:48:33.815Z,80.52
2022-10-19T10:53:43.629Z,80.40
2022-10-19T10:58:55.796Z,80.46
2022-10-19T11:04:02.415Z,80.56
2022-10-19T11:09:18.079Z,80.66
2022-10-19T11:14:34.754Z,80.63
2022-10-19T11:19:45.715Z,80.66
2022-10-19T11:25:05.594Z,80.68
2022-10-19T11:30:16.245Z,80.47
2022-10-19T11:35:38.023Z,80.49
2022-10-19T11:46:27.215Z,79.86
2022-10-19T11:51:41.196Z,79.44
2022-10-19T11:57:11.492Z,79.39
2022-10-19T12:02:42.153Z,79.33
2022-10-19T12:08:01.798Z,79.27
2022-10-19T12:13:13.921Z,79.21
2022-10-19T12:18:23.775Z,78.84
2022-10-19T12:23:34.713Z,78.99
2022-10-19T12:28:45.404Z,78.45
2022-10-19T12:34:00.850Z,78.27
2022-10-19T12:39:14.543Z,78.30
2022-10-19T12:44:39.406Z,78.37
2022-10-19T12:49:51.314Z,78.51
2022-10-19T12:55:12.017Z,78.54
2022-10-19T13:00:26.643Z,78.58
2022-10-19T13:05:35.612Z,78.68
2022-10-19T13:10:42.900Z,78.74
2022-10-19T13:15:58.051Z,78.74
2022-10-19T13:21:08.379Z,78.71
2022-10-19T13:26:35.059Z,78.69
2022-10-19T13:31:42.085Z,78.74
2022-10-19T13:42:29.718Z,78.63
2022-10-19T13:47:42.522Z,78.63
2022-10-19T13:53:08.780Z,78.69
2022-10-19T13:58:34.603Z,78.82
2022-10-19T14:03:57.475Z,78.83
2022-10-19T14:09:30.329Z,78.82
2022-10-19T14:14:43.857Z,78.74
2022-10-19T14:19:53.000Z,78.67
2022-10-19T14:25:08.093Z,78.65
2022-10-19T14:30:26.523Z,78.56
2022-10-19T14:35:37.369Z,78.47
2022-10-19T14:40:44.988Z,78.29
2022-10-19T14:46:13.555Z,78.20
2022-10-19T14:51:31.000Z,78.13
2022-10-19T14:56:54.390Z,78.06
2022-10-19T15:02:06.438Z,78.01
2022-10-19T15:07:22.440Z,78.01
2022-10-19T15:12:36.902Z,78.12
2022-10-19T15:17:54.307Z,78.21
2022-10-19T15:23:02.145Z,78.26
2022-10-19T15:28:36.151Z,78.30
2022-10-19T15:33:49.932Z,78.31
2022-10-19T15:39:24.649Z,78.32
2022-10-19T15:44:35.038Z,78.37
2022-10-19T15:50:01.131Z,78.49
2022-10-19T15:55:09.518Z,78.53
2022-10-19T16:00:20.664Z,78.56
2022-10-19T16:05:28.009Z,78.58
2022-10-19T16:10:35.211Z,78.54
2022-10-19T16:15:42.369Z,78.44
2022-10-19T16:20:49.762Z,78.28
2022-10-19T16:25:56.836Z,78.21
2022-10-19T16:31:04.227Z,78.19
2022-10-19T16:36:13.379Z,78.20
2022-10-19T16:41:20.559Z,78.21
2022-10-19T16:46:28.764Z,78.16
2022-10-19T16:51:40.294Z,78.15
2022-10-19T16:56:49.352Z,78.15
2022-10-19T17:01:56.884Z,78.13
2022-10-19T17:07:04.508Z,78.10
2022-10-19T17:12:11.999Z,78.06
2022-10-19T17:17:18.910Z,78.13
2022-10-19T17:22:25.984Z,78.21
2022-10-19T17:27:33.374Z,77.90
2022-10-19T17:32:40.897Z,77.84
2022-10-19T17:37:48.282Z,77.86
2022-10-19T17:42:55.889Z,77.90
2022-10-19T17:48:02.964Z,77.91
2022-10-19T17:53:10.237Z,77.93
2022-10-19T17:58:17.237Z,77.94
2022-10-19T18:03:24.777Z,77.91
2022-10-19T18:08:32.962Z,77.91
2022-10-19T18:13:40.959Z,77.91
2022-10-19T18:18:50.472Z,77.96
2022-10-19T18:24:00.005Z,78.05
2022-10-19T18:29:14.984Z,78.14
2022-10-19T18:34:23.915Z,78.20
2022-10-19T18:39:31.236Z,78.28
2022-10-19T18:44:38.371Z,78.33
2022-10-19T18:49:45.600Z,78.39
2022-10-19T18:54:52.854Z,78.45
2022-10-19T19:00:00.098Z,78.44
2022-10-19T19:05:07.781Z,78.44
2022-10-19T19:10:15.013Z,78.48
2022-10-19T19:15:22.212Z,78.49
2022-10-19T19:20:29.385Z,78.51
2022-10-19T19:25:36.469Z,78.51
2022-10-19T19:30:45.810Z,78.49
2022-10-19T19:35:52.951Z,78.49
2022-10-19T19:41:00.190Z,78.50
2022-10-19T19:46:11.422Z,78.52
2022-10-19T19:51:20.831Z,78.54
2022-10-19T19:56:29.162Z,78.63
2022-10-19T20:01:38.270Z,78.73
2022-10-19T20:06:45.786Z,78.80
2022-10-19T20:11:52.804Z,78.86
2022-10-19T20:17:00.086Z,78.91
2022-10-19T20:22:07.855Z,78.97
2022-10-19T20:27:14.970Z,78.99
2022-10-19T20:32:21.960Z,79.06
2022-10-19T20:37:30.569Z,79.17
2022-10-19T20:42:38.176Z,79.23
2022-10-19T20:47:45.515Z,79.32
2022-10-19T20:52:52.379Z,79.35
2022-10-19T20:57:59.492Z,79.35
2022-10-19T21:03:06.303Z,79.39
2022-10-19T21:08:16.043Z,79.45
2022-10-19T21:13:23.099Z,79.47
2022-10-19T21:18:30.067Z,79.44
2022-10-19T21:23:37.157Z,79.41
2022-10-19T21:28:47.144Z,79.40
2022-10-19T21:33:55.279Z,79.39
2022-10-19T21:39:02.345Z,79.39
2022-10-19T21:44:09.631Z,79.42
2022-10-19T21:49:17.082Z,79.50
2022-10-19T21:54:26.540Z,79.59
2022-10-19T21:59:34.061Z,79.68
2022-10-19T22:04:40.820Z,79.77
2022-10-19T22:09:48.106Z,79.86
2022-10-19T22:14:55.137Z,79.92
2022-10-19T22:20:02.185Z,79.99
2022-10-19T22:25:09.956Z,80.06
2022-10-19T22:30:17.299Z,80.12
2022-10-19T22:35:24.268Z,80.21
2022-10-19T22:40:31.203Z,80.29
2022-10-19T22:45:38.307Z,80.35
2022-10-19T22:50:45.304Z,80.43
2022-10-19T22:55:52.711Z,80.48
2022-10-19T23:01:06.187Z,80.52
2022-10-19T23:06:15.718Z,80.51
2022-10-19T23:11:22.770Z,80.51
2022-10-19T23:16:31.178Z,80.49
2022-10-19T23:21:38.127Z,80.47
2022-10-19T23:26:45.058Z,80.50
2022-10-19T23:31:52.340Z,80.56
2022-10-19T23:36:59.597Z,80.66
2022-10-19T23:42:06.940Z,80.67
2022-10-19T23:47:14.017Z,80.71
2022-10-19T23:52:20.847Z,80.74
2022-10-19T23:57:27.764Z,80.75
